Terminal Aerodrome Forecast
Issued by NWS

Home | Current Version | Previous Version | Text Only | Print | Product List | Glossary On
Versions: 1 2 3 4 5 6 7 8 9 10 11 12 13 14 15 16 17 18 19
000
FTUS43 KMQT 281700
TAFIWD
TAF
KIWD 281737Z 2818/2918 32010KT P6SM VCSH BKN035
      TEMPO 2818/2820 BKN030
     FM282000 31009KT 6SM -SHSN OVC025
     FM282300 29005KT P6SM -SHSN OVC030
     FM290200 29005KT P6SM VCSH BKN035
     FM290800 29007KT 5SM -SHSN OVC025
      AMD LTD TO CLD VIS AND WIND=

USA.gov is the U.S. government's official web portal to all federal, state and local government web resources and services.